Time;durP1;ratioP1;P1;durP2;ratioP2;P2;SDS_P1;SDS_P2;PMS_P1;PMS_P2;Temp;Humidity;BMP_temperature;BMP_pressure;BME280_temperature;BME280_humidity;BME280_pressure;Samples;Min_cycle;Max_cycle;Signal;HPM_P1;HPM_P2
2023/07/06 00:01:57;;;;;;;6.83;3.77;;;;;;;-143.84;49.13;45014.78;4898920;29;21120;-56
2023/07/06 00:04:25;;;;;;;10.03;3.97;;;;;;;-143.84;49.48;45049.06;4899664;29;20456;-56
2023/07/06 00:06:52;;;;;;;6.83;3.53;;;;;;;-143.84;49.33;45033.84;4893740;29;20488;-56
2023/07/06 00:09:19;;;;;;;6.60;4.10;;;;;;;-143.84;49.56;45045.25;4896830;29;21009;-56
2023/07/06 00:11:47;;;;;;;9.03;3.80;;;;;;;-143.84;49.38;45035.75;4897659;29;20449;-56
2023/07/06 00:14:16;;;;;;;13.83;4.13;;;;;;;-143.84;48.87;45039.53;4899515;29;20499;-56
2023/07/06 00:16:47;;;;;;;11.20;4.07;;;;;;;-143.84;48.40;45024.31;4901510;29;20449;-56
2023/07/06 00:19:19;;;;;;;15.67;3.60;;;;;;;-143.84;48.54;45028.13;4894047;29;20874;-56
2023/07/06 00:21:47;;;;;;;5.20;3.67;;;;;;;-143.84;48.56;45031.94;4900348;29;20910;-56
2023/07/06 00:24:15;;;;;;;10.70;3.63;;;;;;;-143.84;48.35;45030.03;4894755;29;20493;-56
2023/07/06 00:26:43;;;;;;;5.00;3.67;;;;;;;-143.84;48.03;45045.25;4894506;29;20451;-56
2023/07/06 00:29:10;;;;;;;4.30;3.80;;;;;;;-143.84;47.71;45037.66;4902772;29;20480;-56
2023/07/06 00:31:51;;;;;;;3.80;3.50;;;;;;;-143.84;47.21;45035.75;4902783;29;20525;-56
2023/07/06 00:34:20;;;;;;;3.97;3.40;;;;;;;-143.84;47.45;45024.31;4893309;29;20475;-56
2023/07/06 00:36:48;;;;;;;6.37;3.60;;;;;;;-143.84;47.36;45037.66;4898362;29;20517;-56
2023/07/06 00:39:15;;;;;;;6.23;3.67;;;;;;;-143.84;47.10;45028.13;4895132;29;20966;-56
2023/07/06 00:41:43;;;;;;;7.53;4.50;;;;;;;-143.84;47.17;45014.78;4894818;29;20546;-56
2023/07/06 00:44:44;;;;;;;4.43;3.13;;;;;;;-143.84;47.16;45030.03;4893751;29;20448;-56
2023/07/06 00:47:13;;;;;;;4.20;3.90;;;;;;;-143.84;47.16;45039.53;4890610;29;20841;-56
2023/07/06 00:49:42;;;;;;;6.23;3.67;;;;;;;-143.84;47.63;45033.84;4893456;29;20480;-56
2023/07/06 00:52:10;;;;;;;12.13;3.90;;;;;;;-143.84;47.73;45026.22;4895053;29;20488;-56
2023/07/06 00:54:42;;;;;;;5.73;3.90;;;;;;;-143.84;47.83;45039.53;4901636;29;20460;-56
2023/07/06 00:57:14;;;;;;;3.67;3.37;;;;;;;-143.84;47.80;45052.88;4893792;29;20448;-56
2023/07/06 00:59:42;;;;;;;7.03;4.00;;;;;;;-143.84;47.65;45035.75;4901421;29;20498;-56
2023/07/06 01:02:13;;;;;;;5.60;4.00;;;;;;;-143.84;47.20;45007.19;4893686;29;20540;-56
2023/07/06 01:04:43;;;;;;;3.80;3.50;;;;;;;-143.84;46.88;45010.97;4893242;29;20493;-56
2023/07/06 01:07:17;;;;;;;4.97;3.40;;;;;;;-143.84;46.66;44991.94;4899548;29;20468;-56
2023/07/06 01:09:44;;;;;;;14.93;3.87;;;;;;;-143.84;47.00;45035.75;4897348;29;20507;-56
2023/07/06 01:12:12;;;;;;;3.57;3.27;;;;;;;-143.84;47.52;45014.78;4894959;29;20451;-56
2023/07/06 01:14:39;;;;;;;5.37;4.00;;;;;;;-143.84;47.94;45035.75;4895164;29;21194;-56
2023/07/06 01:17:11;;;;;;;6.93;3.90;;;;;;;-143.84;48.17;45024.31;4896731;29;20543;-56
2023/07/06 01:20:14;;;;;;;6.60;3.97;;;;;;;-143.84;47.92;45020.50;4903464;29;20472;-56
2023/07/06 01:23:04;;;;;;;4.63;3.60;;;;;;;-143.84;48.34;45018.59;4895784;29;21713;-56
2023/07/06 01:25:48;;;;;;;10.67;3.90;;;;;;;-143.84;48.63;45049.06;4892443;29;20458;-56
2023/07/06 01:28:31;;;;;;;4.20;3.90;;;;;;;-143.84;49.48;45043.34;4901150;29;20519;-56
2023/07/06 01:31:15;;;;;;;5.93;3.67;;;;;;;-143.84;48.95;45001.47;4897199;29;20464;-56
2023/07/06 01:33:48;;;;;;;3.83;3.53;;;;;;;-143.84;48.97;45041.44;4898720;29;20456;-56
2023/07/06 01:36:23;;;;;;;5.83;3.87;;;;;;;-143.84;48.74;45049.06;4895684;29;20444;-56
2023/07/06 01:39:14;;;;;;;3.83;3.50;;;;;;;-143.84;48.22;45016.69;4900532;29;20534;-56
2023/07/06 01:41:41;;;;;;;3.97;3.67;;;;;;;-143.84;47.41;45033.84;4894608;29;20448;-56
2023/07/06 01:44:11;;;;;;;5.60;3.73;;;;;;;-143.84;47.66;45071.91;4898320;29;20554;-56
2023/07/06 01:46:46;;;;;;;4.20;3.60;;;;;;;-143.84;47.47;45016.69;4899097;29;21639;-56
2023/07/06 01:49:13;;;;;;;4.37;3.30;;;;;;;-143.84;47.34;45054.78;4894376;29;20552;-56
2023/07/06 01:51:50;;;;;;;6.13;3.93;;;;;;;-143.84;47.09;45010.97;4896446;29;20455;-56
2023/07/06 01:54:21;;;;;;;14.93;4.07;;;;;;;-143.84;47.06;45028.13;4898874;29;20440;-56
2023/07/06 01:56:55;;;;;;;4.40;4.10;;;;;;;-143.84;46.75;45033.84;4893257;29;20448;-56
2023/07/06 01:59:25;;;;;;;5.07;3.63;;;;;;;-143.84;46.65;45020.50;4900730;29;20456;-56
2023/07/06 02:02:00;;;;;;;5.23;3.97;;;;;;;-143.84;46.72;45039.53;4894056;29;20474;-56
2023/07/06 02:04:28;;;;;;;3.83;3.53;;;;;;;-143.84;46.91;45031.94;4892558;29;20460;-56
2023/07/06 02:07:00;;;;;;;4.37;3.97;;;;;;;-143.84;46.72;45047.16;4895502;29;20539;-56
2023/07/06 02:09:28;;;;;;;4.37;3.60;;;;;;;-143.84;47.20;45018.59;4894678;29;20494;-56
2023/07/06 02:11:56;;;;;;;9.43;3.70;;;;;;;-143.84;47.34;45009.09;4899975;29;20444;-56
2023/07/06 02:14:23;;;;;;;6.70;4.60;;;;;;;-143.84;47.74;45010.97;4891130;29;20564;-56
2023/07/06 02:16:52;;;;;;;7.13;4.23;;;;;;;-143.84;47.80;45050.97;4893824;29;20451;-56
2023/07/06 02:19:22;;;;;;;3.93;3.60;;;;;;;-143.84;47.73;45054.78;4891524;29;21057;-56
2023/07/06 02:21:50;;;;;;;8.33;4.10;;;;;;;-143.84;47.53;45030.03;4896683;29;20457;-56
2023/07/06 02:24:18;;;;;;;3.80;3.50;;;;;;;-143.84;47.81;45026.22;4890471;29;20836;-56
2023/07/06 02:26:45;;;;;;;10.87;3.20;;;;;;;-143.84;47.72;45026.22;4897621;29;20993;-56
2023/07/06 02:29:14;;;;;;;6.73;3.70;;;;;;;-143.84;47.56;45033.84;4901813;29;21446;-56
2023/07/06 02:31:41;;;;;;;5.97;3.50;;;;;;;-143.84;47.95;45031.94;4896972;29;20459;-56
2023/07/06 02:34:08;;;;;;;6.97;4.10;;;;;;;-143.84;48.07;45033.84;4897583;29;20486;-56
2023/07/06 02:36:38;;;;;;;5.00;3.37;;;;;;;-143.84;48.37;45012.88;4891944;29;20514;-56
2023/07/06 02:39:05;;;;;;;10.60;4.10;;;;;;;-143.84;48.61;45018.59;4901751;29;20460;-56
2023/07/06 02:41:33;;;;;;;4.93;3.50;;;;;;;-143.84;48.94;45041.44;4902288;29;20536;-56
2023/07/06 02:44:00;;;;;;;5.40;4.33;;;;;;;-143.84;49.25;45033.84;4899110;29;20828;-56
2023/07/06 02:46:29;;;;;;;9.60;3.50;;;;;;;-143.84;49.36;45020.50;4901737;29;20514;-56
2023/07/06 02:48:56;;;;;;;4.40;3.40;;;;;;;-143.84;48.71;45031.94;4902270;29;20506;-56
2023/07/06 02:51:23;;;;;;;4.03;3.63;;;;;;;-143.84;48.52;45030.03;4894674;29;20457;-56
2023/07/06 02:53:52;;;;;;;9.27;3.40;;;;;;;-143.84;48.47;45030.03;4899255;29;20451;-56
2023/07/06 02:56:19;;;;;;;4.43;4.10;;;;;;;-143.84;48.31;45014.78;4903059;29;20455;-56
2023/07/06 02:58:46;;;;;;;4.23;3.93;;;;;;;-143.84;47.73;45003.38;4897718;29;20522;-56
2023/07/06 03:01:15;;;;;;;3.77;3.00;;;;;;;-143.84;47.69;44997.66;4896803;29;20584;-56
2023/07/06 03:03:42;;;;;;;10.60;3.50;;;;;;;-143.84;47.67;45024.31;4896160;29;20452;-56
2023/07/06 03:06:09;;;;;;;3.70;3.40;;;;;;;-143.84;47.55;45022.41;4896722;29;20444;-56
2023/07/06 03:08:36;;;;;;;3.50;3.30;;;;;;;-143.84;47.25;45010.97;4896425;29;20522;-56
2023/07/06 03:11:05;;;;;;;3.83;3.27;;;;;;;-143.84;47.86;45037.66;4896584;29;20522;-56
2023/07/06 03:13:32;;;;;;;10.13;4.00;;;;;;;-143.84;47.88;45003.38;4896799;29;20458;-56
2023/07/06 03:15:59;;;;;;;7.73;3.47;;;;;;;-143.84;48.34;45009.09;4896493;29;20487;-56
2023/07/06 03:18:26;;;;;;;6.90;3.33;;;;;;;-143.84;48.48;45031.94;4896547;29;20449;-56
2023/07/06 03:20:55;;;;;;;5.57;3.63;;;;;;;-143.84;48.29;45024.31;4896747;29;20470;-56
2023/07/06 03:23:22;;;;;;;6.40;4.30;;;;;;;-143.84;48.14;45010.97;4896397;29;20460;-56
2023/07/06 03:25:52;;;;;;;8.93;3.70;;;;;;;-143.84;47.96;45020.50;4896494;29;20512;-56
2023/07/06 03:28:23;;;;;;;4.57;4.07;;;;;;;-143.84;47.64;45001.47;4896321;29;20574;-56
2023/07/06 03:30:55;;;;;;;4.60;3.60;;;;;;;-143.84;47.80;45005.28;4896148;29;20469;-56
2023/07/06 03:33:24;;;;;;;8.07;3.50;;;;;;;-143.84;47.25;45018.59;4896748;29;20876;-56
2023/07/06 03:35:53;;;;;;;5.10;4.20;;;;;;;-143.84;47.66;45020.50;4896236;29;20455;-56
2023/07/06 03:38:22;;;;;;;11.33;3.40;;;;;;;-143.84;47.39;45024.31;4896262;29;20554;-56
2023/07/06 03:40:50;;;;;;;4.47;3.83;;;;;;;-143.84;46.95;45007.19;4896322;29;20507;-57
2023/07/06 03:43:17;;;;;;;7.37;3.70;;;;;;;-143.84;46.87;45010.97;4896170;29;20449;-56
2023/07/06 03:45:49;;;;;;;7.80;3.53;;;;;;;-143.84;46.21;45028.13;4895987;29;20526;-56
2023/07/06 03:48:16;;;;;;;10.47;3.53;;;;;;;-143.84;45.37;45014.78;4896017;29;20457;-56
2023/07/06 03:50:44;;;;;;;7.90;4.10;;;;;;;-143.84;45.24;45022.41;4895926;29;20442;-56
2023/07/06 03:53:12;;;;;;;8.63;3.90;;;;;;;-143.84;45.10;44980.53;4896084;29;20505;-56
2023/07/06 03:55:40;;;;;;;7.50;3.23;;;;;;;-143.84;45.13;45005.28;4895790;29;20460;-56
2023/07/06 03:58:08;;;;;;;11.93;3.80;;;;;;;-143.84;44.01;45005.28;4896044;29;20456;-56
2023/07/06 04:00:36;;;;;;;8.03;3.60;;;;;;;-143.84;43.36;44980.53;4896198;29;20438;-57
2023/07/06 04:03:06;;;;;;;5.30;3.73;;;;;;;-143.84;42.40;44988.13;4896013;29;20442;-57
2023/07/06 04:05:36;;;;;;;5.53;3.47;;;;;;;-143.84;41.57;44969.09;4895357;29;20485;-56
2023/07/06 04:08:05;;;;;;;3.93;3.60;;;;;;;-143.84;40.71;44955.75;4895777;29;20824;-56
2023/07/06 04:10:33;;;;;;;7.43;3.30;;;;;;;-143.84;39.86;44967.19;4895688;29;20489;-56
2023/07/06 04:13:01;;;;;;;5.97;3.30;;;;;;;-143.84;39.25;44967.19;4895558;29;20478;-56
2023/07/06 04:15:30;;;;;;;6.40;3.50;;;;;;;-143.84;39.14;44925.31;4895512;29;21019;-56
2023/07/06 04:17:57;;;;;;;11.70;3.40;;;;;;;-143.84;38.81;44917.69;4895566;29;20437;-56
2023/07/06 04:20:28;;;;;;;8.13;3.77;;;;;;;-143.84;38.66;44913.88;4895395;29;20469;-56
2023/07/06 04:22:58;;;;;;;15.23;4.30;;;;;;;-143.84;38.69;44923.41;4895508;29;20494;-56
2023/07/06 04:25:29;;;;;;;4.63;3.43;;;;;;;-143.84;38.40;44921.50;4895299;29;20460;-56
2023/07/06 04:27:57;;;;;;;3.53;3.23;;;;;;;-143.84;37.93;44932.91;4895511;29;20454;-56
2023/07/06 04:30:25;;;;;;;4.00;3.50;;;;;;;-143.84;37.67;44868.19;4894949;29;20481;-56
2023/07/06 04:32:53;;;;;;;14.30;3.23;;;;;;;-143.84;37.58;44898.66;4895270;29;20457;-56
2023/07/06 04:35:22;;;;;;;7.53;3.17;;;;;;;-143.84;37.38;44877.69;4895595;29;20461;-56
2023/07/06 04:37:52;;;;;;;25.07;3.73;;;;;;;-143.84;36.29;44915.78;4895292;29;20448;-56
2023/07/06 04:40:21;;;;;;;4.70;3.63;;;;;;;-143.84;36.35;44902.44;4895283;29;20570;-56
2023/07/06 04:42:49;;;;;;;10.97;3.23;;;;;;;-143.84;35.83;44866.28;4895087;29;20445;-56
2023/07/06 04:45:18;;;;;;;4.53;3.00;;;;;;;-143.84;35.33;44854.84;4895149;29;20549;-57
2023/07/06 04:47:46;;;;;;;6.80;3.60;;;;;;;-143.84;34.96;44871.97;4895378;29;20497;-56
2023/07/06 04:50:17;;;;;;;7.43;3.20;;;;;;;-143.84;34.31;44835.81;4895008;29;20493;-56
2023/07/06 04:52:45;;;;;;;3.67;3.37;;;;;;;-143.84;34.24;44854.84;4894768;29;20445;-56
2023/07/06 04:55:22;;;;;;;8.73;3.33;;;;;;;-143.84;34.51;44864.38;4894971;29;20485;-56
2023/07/06 04:57:51;;;;;;;18.10;3.43;;;;;;;-143.84;34.47;44851.03;4895058;29;20948;-56
2023/07/06 05:00:24;;;;;;;24.30;4.37;;;;;;;-143.84;34.59;44835.81;4894624;29;21013;-57
2023/07/06 05:02:53;;;;;;;4.80;3.90;;;;;;;-143.84;34.38;44830.09;4894551;29;20464;-56
2023/07/06 05:05:22;;;;;;;16.47;4.27;;;;;;;-143.84;34.48;44809.16;4893987;29;20521;-58
2023/07/06 05:07:50;;;;;;;8.60;4.00;;;;;;;-143.84;34.07;44847.22;4894623;29;20509;-58
2023/07/06 05:10:19;;;;;;;31.53;5.27;;;;;;;-143.84;34.33;44833.91;4894223;29;21008;-57
2023/07/06 05:12:46;;;;;;;5.20;3.70;;;;;;;-143.84;34.28;44814.88;4894776;29;20458;-57
2023/07/06 05:15:14;;;;;;;11.03;4.30;;;;;;;-143.84;34.68;44851.03;4894634;29;20493;-57
2023/07/06 05:17:42;;;;;;;9.17;4.00;;;;;;;-143.84;34.53;44873.88;4895258;29;20532;-57
2023/07/06 05:20:13;;;;;;;12.87;4.30;;;;;;;-143.84;34.74;44814.88;4895008;29;20591;-57
2023/07/06 05:22:42;;;;;;;24.10;16.97;;;;;;;-143.84;34.45;44837.72;4894547;29;20446;-57
2023/07/06 05:25:10;;;;;;;21.37;9.80;;;;;;;-143.84;34.11;44866.28;4894353;29;20450;-57
2023/07/06 05:27:39;;;;;;;12.93;8.10;;;;;;;-143.84;34.07;44833.91;4894835;29;20480;-58
2023/07/06 05:30:07;;;;;;;12.60;5.13;;;;;;;-143.84;34.71;44858.66;4894482;29;20489;-57
2023/07/06 05:32:35;;;;;;;9.90;4.00;;;;;;;-143.84;34.04;44879.59;4894563;29;20521;-57
2023/07/06 05:35:02;;;;;;;7.43;4.37;;;;;;;-143.84;34.21;44862.47;4894093;29;20533;-56
2023/07/06 05:37:29;;;;;;;15.43;4.50;;;;;;;-143.84;34.52;44837.72;4894032;29;20449;-57
2023/07/06 05:39:56;;;;;;;6.20;3.97;;;;;;;-143.84;34.28;44835.81;4894117;29;20446;-56
2023/07/06 05:42:23;;;;;;;13.43;4.03;;;;;;;-143.84;33.57;44837.72;4894370;29;20437;-57
2023/07/06 05:44:52;;;;;;;11.40;4.30;;;;;;;-143.84;33.83;44854.84;4894230;29;20520;-57
2023/07/06 05:47:20;;;;;;;9.43;3.87;;;;;;;-143.84;33.82;44847.22;4894211;29;20964;-57
2023/07/06 05:49:47;;;;;;;7.13;4.20;;;;;;;-143.84;33.78;44807.25;4893913;29;20497;-57
2023/07/06 05:52:14;;;;;;;10.57;5.10;;;;;;;-143.84;33.50;44822.47;4893436;29;20454;-57
2023/07/06 05:54:41;;;;;;;4.23;3.80;;;;;;;-143.84;33.27;44812.97;4893590;29;20454;-57
2023/07/06 05:57:10;;;;;;;10.13;4.50;;;;;;;-143.84;34.12;44795.81;4893310;29;20446;-57
2023/07/06 05:59:41;;;;;;;17.77;4.27;;;;;;;-143.84;34.33;44841.53;4894102;29;20461;-57
2023/07/06 06:02:12;;;;;;;11.53;4.43;;;;;;;-143.84;34.25;44805.34;4893949;29;20442;-57
2023/07/06 06:04:39;;;;;;;5.10;3.80;;;;;;;-143.84;34.53;44812.97;4893891;29;20460;-57
2023/07/06 06:07:07;;;;;;;16.23;5.73;;;;;;;-143.84;34.65;44811.06;4894151;29;20437;-57
2023/07/06 06:09:34;;;;;;;13.67;7.20;;;;;;;-143.84;34.90;44824.38;4894005;29;20521;-57
2023/07/06 06:12:04;;;;;;;9.77;7.80;;;;;;;-143.84;35.02;44830.09;4894051;29;20453;-57
2023/07/06 06:14:31;;;;;;;8.30;6.43;;;;;;;-143.84;35.07;44799.63;4893630;29;20576;-57
2023/07/06 06:16:59;;;;;;;11.50;5.47;;;;;;;-143.84;35.25;44833.91;4893782;29;20517;-57
2023/07/06 06:19:31;;;;;;;14.00;4.93;;;;;;;-143.84;35.28;44852.94;4893667;29;20454;-57
2023/07/06 06:21:59;;;;;;;7.43;4.63;;;;;;;-143.84;35.39;44833.91;4893877;29;20461;-57
2023/07/06 06:24:27;;;;;;;11.43;4.33;;;;;;;-143.84;35.40;44847.22;4893914;29;20529;-57
2023/07/06 06:26:54;;;;;;;12.13;4.90;;;;;;;-143.84;34.82;44832.00;4893768;29;20450;-57
2023/07/06 06:29:21;;;;;;;5.90;4.70;;;;;;;-143.84;34.83;44788.22;4895378;29;20556;-57
2023/07/06 06:31:50;;;;;;;10.07;4.60;;;;;;;-143.84;34.68;44797.72;4897484;29;20505;-57
2023/07/06 06:34:17;;;;;;;14.10;5.03;;;;;;;-143.84;34.39;44812.97;4897488;29;21331;-57
2023/07/06 06:36:46;;;;;;;6.50;4.60;;;;;;;-143.84;34.48;44841.53;4897293;29;20994;-57
2023/07/06 06:39:14;;;;;;;6.33;3.90;;;;;;;-143.84;33.95;44837.72;4897107;29;20524;-57
2023/07/06 06:41:43;;;;;;;7.20;3.87;;;;;;;-143.84;34.05;44843.44;4897058;29;20540;-57
2023/07/06 06:44:12;;;;;;;10.00;4.33;;;;;;;-143.84;33.47;44820.56;4897251;29;20464;-57
2023/07/06 06:46:39;;;;;;;6.40;3.73;;;;;;;-143.84;33.66;44818.66;4896929;29;20947;-57
2023/07/06 06:49:06;;;;;;;8.20;3.90;;;;;;;-143.84;32.73;44792.00;4896943;29;20457;-57
2023/07/06 06:51:34;;;;;;;4.37;3.97;;;;;;;-143.84;32.45;44786.31;4897328;29;20445;-57
2023/07/06 06:54:02;;;;;;;12.80;4.00;;;;;;;-143.84;32.80;44818.66;4897184;29;20464;-57
2023/07/06 06:56:29;;;;;;;5.20;3.50;;;;;;;-143.84;32.12;44769.16;4897259;29;20442;-57
2023/07/06 06:58:57;;;;;;;6.30;4.00;;;;;;;-143.84;31.90;44759.66;4896940;29;20449;-58
2023/07/06 07:01:25;;;;;;;5.47;3.53;;;;;;;-143.84;31.45;44769.16;4896691;29;20469;-57
2023/07/06 07:03:52;;;;;;;3.93;3.10;;;;;;;-143.84;32.02;44767.25;4896934;29;20557;-57
2023/07/06 08:04:39;;;;;;;4.60;3.40;;;;;;;-143.84;30.69;44774.88;5122359;27;20551;-60
2023/07/06 08:07:07;;;;;;;9.03;4.00;;;;;;;-143.84;31.03;44790.13;5124361;27;20952;-60
2023/07/06 08:09:34;;;;;;;4.57;3.83;;;;;;;-143.84;31.39;44793.91;5106873;28;20440;-60
2023/07/06 08:12:03;;;;;;;10.53;3.30;;;;;;;-143.84;30.88;44772.97;5108412;28;20454;-60
2023/07/06 08:14:38;;;;;;;4.83;3.87;;;;;;;-143.84;32.70;44765.34;5108353;28;20447;-60
2023/07/06 08:17:06;;;;;;;7.43;3.67;;;;;;;-143.84;33.06;44725.38;5108471;28;20439;-60
2023/07/06 08:19:33;;;;;;;15.00;4.30;;;;;;;-143.84;32.61;44744.41;5108211;28;20436;-59
2023/07/06 08:22:02;;;;;;;8.90;3.30;;;;;;;-143.84;31.46;44750.13;5108147;28;21130;-60
2023/07/06 08:24:29;;;;;;;10.20;8.67;;;;;;;-143.84;29.67;44738.69;5108192;28;20491;-60
2023/07/06 08:26:57;;;;;;;14.83;4.40;;;;;;;-143.84;29.45;44740.59;5108388;28;20464;-60
2023/07/06 08:29:24;;;;;;;5.50;3.50;;;;;;;-143.84;30.92;44746.31;5108106;28;21002;-59
2023/07/06 08:31:51;;;;;;;7.80;3.90;;;;;;;-143.84;31.11;44723.47;5108148;28;20444;-59
2023/07/06 08:34:18;;;;;;;6.47;4.03;;;;;;;-143.84;31.94;44774.88;5108076;28;20432;-59
2023/07/06 08:36:45;;;;;;;6.23;4.10;;;;;;;-143.84;31.15;44763.47;5107992;28;20491;-59
2023/07/06 08:39:14;;;;;;;14.90;4.27;;;;;;;-143.84;31.80;44752.03;5108019;28;20442;-59
2023/07/06 08:41:45;;;;;;;9.60;4.20;;;;;;;-143.84;32.25;44774.88;5108256;28;20512;-59
2023/07/06 08:44:14;;;;;;;4.90;4.07;;;;;;;-143.84;31.85;44736.81;5107996;28;20906;-59
2023/07/06 08:46:46;;;;;;;6.00;4.33;;;;;;;-143.84;30.70;44752.03;5107750;28;20442;-59
2023/07/06 08:49:25;;;;;;;4.40;3.63;;;;;;;-143.84;32.00;44748.22;5107662;28;20878;-59
2023/07/06 08:51:54;;;;;;;11.63;4.10;;;;;;;-143.84;31.69;44736.81;5107657;28;20493;-59
2023/07/06 08:54:24;;;;;;;8.20;3.50;;;;;;;-143.84;30.98;44746.31;5107822;28;20443;-59
2023/07/06 08:56:52;;;;;;;3.70;3.40;;;;;;;-143.84;30.65;44753.94;5107729;28;20448;-59
2023/07/06 08:59:27;;;;;;;6.70;3.80;;;;;;;-143.84;30.68;44723.47;5107613;28;21033;-59
2023/07/06 09:01:54;;;;;;;5.20;3.53;;;;;;;-143.84;30.71;44750.13;5107601;28;20488;-59
2023/07/06 09:04:24;;;;;;;4.50;3.90;;;;;;;-143.84;30.66;44734.91;5107073;28;20495;-59
2023/07/06 09:06:55;;;;;;;9.23;3.77;;;;;;;-143.84;32.66;44753.94;5107350;28;20501;-59
2023/07/06 09:09:24;;;;;;;5.87;4.10;;;;;;;-143.84;32.63;44715.84;5107360;28;20501;-59
2023/07/06 09:11:52;;;;;;;8.60;4.17;;;;;;;-143.84;31.48;44757.75;5105707;28;20448;-59
2023/07/06 09:14:24;;;;;;;5.07;4.27;;;;;;;-143.84;30.68;44769.16;5101560;28;20505;-59
2023/07/06 09:16:55;;;;;;;4.33;3.53;;;;;;;-143.84;30.19;44767.25;5092170;28;20439;-59
2023/07/06 09:19:23;;;;;;;12.20;3.93;;;;;;;-143.84;31.12;44746.31;5091717;28;20441;-59
2023/07/06 09:21:54;;;;;;;3.70;3.50;;;;;;;-143.84;31.41;44733.00;5091674;28;20444;-59
2023/07/06 09:24:27;;;;;;;18.23;3.83;;;;;;;-143.84;30.60;44750.13;5091814;28;20560;-60
2023/07/06 09:26:58;;;;;;;4.07;3.77;;;;;;;-143.84;30.91;44750.13;5092055;28;20445;-60
2023/07/06 09:29:32;;;;;;;6.00;4.20;;;;;;;-143.84;31.52;44759.66;5091625;28;20451;-59
2023/07/06 09:32:14;;;;;;;5.83;4.10;;;;;;;-143.84;31.72;44797.72;5091812;28;20914;-60
2023/07/06 09:34:44;;;;;;;4.37;3.77;;;;;;;-143.84;31.52;44807.25;5091688;28;20448;-59
2023/07/06 09:37:13;;;;;;;7.13;3.90;;;;;;;-143.84;31.67;44795.81;5091481;28;20441;-60
2023/07/06 09:39:40;;;;;;;4.10;3.70;;;;;;;-143.84;31.80;44790.13;5091421;28;20450;-60
2023/07/06 09:42:14;;;;;;;4.20;3.83;;;;;;;-143.84;33.80;44786.31;5091657;28;21285;-60
2023/07/06 09:44:42;;;;;;;5.17;4.03;;;;;;;-143.84;32.01;44763.47;5091214;28;20521;-60
2023/07/06 09:47:12;;;;;;;8.23;4.40;;;;;;;-143.84;31.38;44797.72;5091443;28;20441;-60
2023/07/06 09:49:52;;;;;;;5.80;4.40;;;;;;;-143.84;31.25;44801.53;5091212;28;20441;-60
2023/07/06 09:52:19;;;;;;;3.87;3.57;;;;;;;-143.84;31.29;44761.56;5091344;28;20455;-60
2023/07/06 09:54:54;;;;;;;4.80;3.83;;;;;;;-143.84;31.33;44759.66;5091368;28;20448;-60
2023/07/06 09:57:25;;;;;;;11.67;3.37;;;;;;;-143.84;31.82;44778.69;5091077;28;20451;-60
2023/07/06 09:59:54;;;;;;;7.90;3.93;;;;;;;-143.84;32.03;44790.13;5091003;28;20448;-60
2023/07/06 10:02:30;;;;;;;4.50;4.00;;;;;;;-143.84;31.51;44772.97;5091246;28;20440;-60
2023/07/06 10:05:04;;;;;;;5.03;4.20;;;;;;;-143.84;31.38;44799.63;5090961;28;20502;-59
2023/07/06 10:07:41;;;;;;;5.93;3.83;;;;;;;-143.84;31.24;44788.22;5090938;28;20881;-60
2023/07/06 10:10:16;;;;;;;7.77;3.93;;;;;;;-143.84;31.68;44782.50;5090821;28;20860;-59
2023/07/06 10:12:51;;;;;;;4.10;3.80;;;;;;;-143.84;31.89;44801.53;5091022;28;20493;-60
2023/07/06 10:15:26;;;;;;;7.77;4.10;;;;;;;-143.84;32.97;44793.91;5091141;28;20494;-59
2023/07/06 10:18:02;;;;;;;13.03;5.93;;;;;;;-143.84;31.15;44780.59;5090741;28;20451;-60
2023/07/06 10:20:36;;;;;;;4.27;3.57;;;;;;;-143.84;31.29;44812.97;5089825;28;20436;-59
2023/07/06 10:23:15;;;;;;;6.87;4.00;;;;;;;-143.84;31.02;44780.59;5090240;28;20909;-60
2023/07/06 10:25:50;;;;;;;11.00;3.40;;;;;;;-143.84;31.34;44792.00;5089689;28;20433;-60
2023/07/06 10:28:24;;;;;;;4.33;3.97;;;;;;;-143.84;31.39;44807.25;5089421;28;20527;-60
2023/07/06 10:30:55;;;;;;;9.87;3.73;;;;;;;-143.84;32.01;44811.06;5089581;28;20448;-60
2023/07/06 10:33:28;;;;;;;4.73;3.87;;;;;;;-143.84;32.08;44795.81;5090160;28;20508;-60
2023/07/06 10:35:58;;;;;;;5.33;3.67;;;;;;;-143.84;31.99;44801.53;5090348;28;20439;-60
2023/07/06 10:38:26;;;;;;;21.77;4.17;;;;;;;-143.84;32.52;44792.00;5090841;28;20449;-60
2023/07/06 10:41:21;;;;;;;13.63;11.17;;;;;;;-143.84;31.37;44792.00;5090579;28;20441;-60
2023/07/06 10:43:51;;;;;;;11.47;6.17;;;;;;;-143.84;31.27;44809.16;5090295;28;20510;-60
2023/07/06 10:46:31;;;;;;;11.73;4.00;;;;;;;-143.84;31.72;44799.63;5090104;28;20451;-60
2023/07/06 10:48:59;;;;;;;10.40;3.73;;;;;;;-143.84;32.46;44790.13;5090253;28;20441;-60
2023/07/06 10:51:29;;;;;;;8.90;3.90;;;;;;;-143.84;31.78;44805.34;5089918;28;20468;-60
2023/07/06 10:54:11;;;;;;;10.10;3.67;;;;;;;-143.84;31.38;44780.59;5088755;28;20539;-60
2023/07/06 10:56:42;;;;;;;11.40;4.33;;;;;;;-143.84;31.36;44833.91;5090187;28;20441;-60
2023/07/06 10:59:18;;;;;;;11.47;4.30;;;;;;;-143.84;31.37;44809.16;5089906;28;20505;-60
2023/07/06 11:01:50;;;;;;;13.67;3.80;;;;;;;-143.84;31.37;44807.25;5089857;28;20799;-60
2023/07/06 11:04:45;;;;;;;12.00;4.43;;;;;;;-143.84;31.35;44820.56;5089561;28;20502;-60
2023/07/06 11:07:14;;;;;;;8.00;3.70;;;;;;;-143.84;31.26;44790.13;5089957;28;20440;-60
2023/07/06 11:10:09;;;;;;;5.30;3.57;;;;;;;-143.84;31.63;44828.19;5089844;28;20527;-60
2023/07/06 11:12:51;;;;;;;4.03;3.70;;;;;;;-143.84;31.23;44774.88;5089662;28;20445;-60
2023/07/06 11:15:22;;;;;;;8.67;4.57;;;;;;;-143.84;32.34;44812.97;5089570;28;20449;-60
2023/07/06 11:17:52;;;;;;;8.17;3.90;;;;;;;-143.84;31.66;44778.69;5089811;28;20519;-60
2023/07/06 11:20:23;;;;;;;6.50;4.03;;;;;;;-143.84;31.80;44767.25;5089380;28;20441;-60
2023/07/06 11:22:55;;;;;;;5.17;3.00;;;;;;;-143.84;32.37;44824.38;5089469;28;20437;-60
2023/07/06 11:25:23;;;;;;;4.23;3.57;;;;;;;-143.84;31.69;44795.81;5089435;28;20480;-60
2023/07/06 11:27:57;;;;;;;5.23;4.07;;;;;;;-143.84;34.03;44792.00;5089484;28;20535;-60
2023/07/06 11:30:31;;;;;;;4.20;3.80;;;;;;;-143.84;33.69;44805.34;5089523;28;20432;-60
2023/07/06 11:33:10;;;;;;;9.83;3.90;;;;;;;-143.84;32.96;44801.53;5089195;28;20444;-60
2023/07/06 11:35:55;;;;;;;4.67;3.33;;;;;;;-143.84;35.13;44790.13;5089230;28;20853;-60
2023/07/06 11:38:42;;;;;;;11.37;4.10;;;;;;;-143.84;34.22;44780.59;5088590;28;20520;-60
2023/07/06 11:41:24;;;;;;;11.27;4.23;;;;;;;-143.84;34.85;44803.44;5089087;28;20441;-60
2023/07/06 11:44:18;;;;;;;5.20;4.20;;;;;;;-143.84;35.62;44805.34;5089152;28;21249;-60
2023/07/06 11:47:09;;;;;;;3.70;3.40;;;;;;;-143.84;34.30;44826.28;5074162;28;20452;-60
2023/07/06 11:49:43;;;;;;;11.60;4.20;;;;;;;-143.84;35.22;44833.91;5069586;28;20444;-60
2023/07/06 11:52:13;;;;;;;6.17;3.53;;;;;;;-143.84;35.35;44839.63;5078434;28;20935;-60
2023/07/06 11:54:48;;;;;;;6.60;4.90;;;;;;;-143.84;36.50;44830.09;5078945;28;20541;-60
2023/07/06 11:57:28;;;;;;;9.03;3.80;;;;;;;-143.84;35.64;44828.19;5077056;28;20550;-60
2023/07/06 12:00:33;;;;;;;6.57;4.20;;;;;;;-143.84;34.59;44860.56;5078161;28;20463;-60
2023/07/06 12:03:04;;;;;;;8.13;4.07;;;;;;;-143.84;34.01;44871.97;5072725;28;20481;-60
2023/07/06 12:05:35;;;;;;;32.27;13.50;;;;;;;-143.84;35.82;44843.44;5068906;28;21073;-60
2023/07/06 12:08:04;;;;;;;7.10;3.87;;;;;;;-143.84;34.62;44839.63;5074644;28;20433;-60
2023/07/06 12:10:36;;;;;;;11.77;5.10;;;;;;;-143.84;34.54;44832.00;5078290;28;20518;-60
2023/07/06 12:13:05;;;;;;;11.40;4.70;;;;;;;-143.84;35.00;44847.22;5076650;28;20429;-60
2023/07/06 12:15:32;;;;;;;13.87;4.20;;;;;;;-143.84;34.08;44795.81;5066307;28;20476;-60
2023/07/06 12:18:01;;;;;;;4.03;3.73;;;;;;;-143.84;32.57;44866.28;5077275;28;20886;-60
2023/07/06 12:20:31;;;;;;;5.53;3.70;;;;;;;-143.84;33.01;44820.56;5074230;28;20710;-60
2023/07/06 12:22:59;;;;;;;12.47;5.53;;;;;;;-143.84;34.84;44792.00;5071685;28;20457;-60
2023/07/06 12:25:29;;;;;;;7.53;4.00;;;;;;;-143.84;35.95;44824.38;5066130;28;20481;-60
2023/07/06 12:34:44;;;;;;;10.97;4.17;;;;;;;-143.84;33.86;44790.13;5088633;28;20936;-57
2023/07/06 12:37:14;;;;;;;10.70;3.83;;;;;;;-143.84;33.30;44833.91;5088538;28;20449;-57